createdAt,value
2022-11-14T00:02:38.372Z,102843.00
2022-11-14T00:05:24.219Z,102845.59
2022-11-14T00:08:21.706Z,102835.06
2022-11-14T00:11:07.130Z,102830.69
2022-11-14T00:13:52.536Z,102829.78
2022-11-14T00:16:37.961Z,102822.78
2022-11-14T00:19:23.216Z,102821.00
2022-11-14T00:22:08.407Z,102820.09
2022-11-14T00:24:54.197Z,102811.34
2022-11-14T00:27:39.531Z,102761.84
2022-11-14T00:30:25.616Z,102809.56
2022-11-14T00:33:14.715Z,102813.03
2022-11-14T00:36:03.535Z,102800.66
2022-11-14T00:38:53.115Z,102812.16
2022-11-14T00:41:38.932Z,102779.59
2022-11-14T00:44:24.924Z,102787.53
2022-11-14T00:47:10.207Z,102800.75
2022-11-14T00:49:55.761Z,102804.28
2022-11-14T00:52:41.322Z,102793.75
2022-11-14T00:55:26.787Z,102791.97
2022-11-14T00:58:12.541Z,102793.72
2022-11-14T01:00:58.018Z,102803.38
2022-11-14T01:03:43.436Z,102810.38
2022-11-14T01:06:28.818Z,102751.34
2022-11-14T01:09:14.084Z,102718.75
2022-11-14T01:12:00.103Z,102800.75
2022-11-14T01:14:45.611Z,102783.94
2022-11-14T01:17:31.023Z,102799.81
2022-11-14T01:20:16.866Z,102803.38
2022-11-14T01:23:02.447Z,102803.38
2022-11-14T01:25:47.691Z,102798.13
2022-11-14T01:28:33.215Z,102798.13
2022-11-14T01:31:21.723Z,102791.13
2022-11-14T01:34:07.160Z,102799.88
2022-11-14T01:37:12.652Z,102796.38
2022-11-14T01:40:17.972Z,102791.97
2022-11-14T01:43:51.134Z,102799.00
2022-11-14T01:47:00.496Z,102792.84
2022-11-14T01:50:10.107Z,102800.72
2022-11-14T01:53:18.832Z,102808.63
2022-11-14T01:56:27.539Z,102800.72
2022-11-14T01:59:38.149Z,102796.34
2022-11-14T02:02:45.649Z,102766.34
2022-11-14T02:05:52.477Z,102792.78
2022-11-14T02:08:58.964Z,102775.16
2022-11-14T02:12:06.186Z,102739.91
2022-11-14T02:15:15.867Z,102783.13
2022-11-14T02:18:22.150Z,102759.34
2022-11-14T02:21:27.547Z,102774.34
2022-11-14T02:24:34.204Z,102758.53
2022-11-14T02:27:39.438Z,102762.09
2022-11-14T02:30:45.211Z,102761.19
2022-11-14T02:33:50.467Z,102759.44
2022-11-14T02:36:56.095Z,102736.56
2022-11-14T02:40:01.167Z,102751.56
2022-11-14T02:43:06.641Z,102722.44
2022-11-14T02:46:11.775Z,102746.25
2022-11-14T02:49:17.590Z,102742.75
2022-11-14T02:52:23.030Z,102738.34
2022-11-14T02:55:29.482Z,102741.78
2022-11-14T02:58:34.936Z,102734.81
2022-11-14T03:01:40.780Z,102728.66
2022-11-14T03:04:46.366Z,102722.47
2022-11-14T03:07:52.080Z,102711.88
2022-11-14T03:10:57.449Z,102714.56
2022-11-14T03:14:03.086Z,102715.44
2022-11-14T03:17:08.479Z,102671.34
2022-11-14T03:20:14.252Z,102715.44
2022-11-14T03:23:19.807Z,102708.41
2022-11-14T03:26:27.792Z,102640.53
2022-11-14T03:29:33.550Z,102702.22
2022-11-14T03:32:38.803Z,102697.84
2022-11-14T03:35:44.361Z,102696.06
2022-11-14T03:38:50.520Z,102688.16
2022-11-14T03:41:55.944Z,102684.66
2022-11-14T03:45:01.383Z,102684.66
2022-11-14T03:48:06.691Z,102671.53
2022-11-14T03:51:12.637Z,102668.88
2022-11-14T03:54:17.929Z,102668.88
2022-11-14T03:57:23.883Z,102667.94
2022-11-14T04:00:30.122Z,102614.25
2022-11-14T04:03:35.804Z,102639.75
2022-11-14T04:06:41.403Z,102650.38
2022-11-14T04:09:46.691Z,102661.75
2022-11-14T04:12:52.449Z,102662.59
2022-11-14T04:15:58.231Z,102651.16
2022-11-14T04:19:03.431Z,102637.13
2022-11-14T04:22:09.243Z,102652.91
2022-11-14T04:25:14.210Z,102655.50
2022-11-14T04:28:19.739Z,102648.50
2022-11-14T04:31:25.518Z,102645.88
2022-11-14T04:34:30.719Z,102644.97
2022-11-14T04:37:36.408Z,102652.78
2022-11-14T04:40:41.975Z,102631.66
2022-11-14T04:43:50.774Z,102643.16
2022-11-14T04:46:56.710Z,102637.91
2022-11-14T04:50:02.033Z,102640.53
2022-11-14T04:53:11.052Z,102632.63
2022-11-14T04:56:16.442Z,102632.63
2022-11-14T04:59:22.423Z,102633.50
2022-11-14T05:02:27.908Z,102640.47
2022-11-14T05:05:36.877Z,102646.59
2022-11-14T05:08:44.869Z,102634.25
2022-11-14T05:11:50.359Z,102643.06
2022-11-14T05:14:55.852Z,102643.03
2022-11-14T05:18:01.450Z,102641.28
2022-11-14T05:21:06.704Z,102614.81
2022-11-14T05:24:12.390Z,102631.56
2022-11-14T05:27:18.974Z,102628.91
2022-11-14T05:30:24.971Z,102628.94
2022-11-14T05:33:30.423Z,102621.94
2022-11-14T05:36:37.361Z,102627.16
2022-11-14T05:39:43.010Z,102621.91
2022-11-14T05:42:48.720Z,102619.28
2022-11-14T05:45:54.063Z,102622.75
2022-11-14T05:48:59.858Z,102629.78
2022-11-14T05:52:05.516Z,102625.38
2022-11-14T05:55:11.377Z,102625.38
2022-11-14T05:58:20.341Z,102622.72
2022-11-14T06:01:32.432Z,102616.66
2022-11-14T06:04:38.021Z,102619.28
2022-11-14T06:07:43.500Z,102596.38
2022-11-14T06:10:49.954Z,102628.00
2022-11-14T06:13:56.085Z,102623.66
2022-11-14T06:17:01.382Z,102602.56
2022-11-14T06:20:07.018Z,102591.19
2022-11-14T06:23:14.669Z,102613.19
2022-11-14T06:26:21.708Z,102607.97
2022-11-14T06:29:31.332Z,102601.84
2022-11-14T06:32:40.114Z,102601.88
2022-11-14T06:35:46.480Z,102599.31
2022-11-14T06:38:53.513Z,102592.19
2022-11-14T06:41:59.331Z,102602.81
2022-11-14T06:45:06.186Z,102598.47
2022-11-14T06:48:11.672Z,102589.69
2022-11-14T06:51:18.450Z,102588.88
2022-11-14T06:54:24.169Z,102592.41
2022-11-14T06:57:29.403Z,102553.69
2022-11-14T07:00:35.328Z,102562.53
2022-11-14T07:03:40.708Z,102579.31
2022-11-14T07:06:47.413Z,102575.00
2022-11-14T07:09:53.003Z,102581.16
2022-11-14T07:12:58.756Z,102575.03
2022-11-14T07:16:14.419Z,102544.28
2022-11-14T07:19:20.807Z,102577.72
2022-11-14T07:22:26.583Z,102567.22
2022-11-14T07:25:32.556Z,102566.38
2022-11-14T07:28:37.982Z,102561.19
2022-11-14T07:31:43.679Z,102555.09
2022-11-14T07:34:48.989Z,102544.59
2022-11-14T07:37:54.875Z,102542.00
2022-11-14T07:41:00.382Z,102545.53
2022-11-14T07:44:06.220Z,102539.38
2022-11-14T07:47:11.718Z,102539.44
2022-11-14T07:50:20.385Z,102527.19
2022-11-14T07:53:26.539Z,102532.50
2022-11-14T07:56:32.140Z,102537.78
2022-11-14T07:59:37.735Z,102535.19
2022-11-14T08:02:43.424Z,102539.59
2022-11-14T08:05:48.619Z,102536.97
2022-11-14T08:08:54.042Z,102533.50
2022-11-14T08:12:08.078Z,102537.00
2022-11-14T08:15:13.291Z,102515.97
2022-11-14T08:18:19.519Z,102531.81
2022-11-14T08:21:25.528Z,102525.72
2022-11-14T08:24:31.089Z,102526.56
2022-11-14T08:27:36.399Z,102529.22
2022-11-14T08:30:41.906Z,102460.72
2022-11-14T08:33:47.402Z,102502.13
2022-11-14T08:36:53.199Z,102503.91
2022-11-14T08:39:58.478Z,102510.06
2022-11-14T08:43:04.128Z,102505.72
2022-11-14T08:45:49.679Z,102491.69
2022-11-14T08:48:34.970Z,102499.59
2022-11-14T08:51:20.418Z,102490.81
2022-11-14T08:54:05.751Z,102481.22
2022-11-14T08:57:11.142Z,102497.00
2022-11-14T09:00:16.587Z,102488.25
2022-11-14T09:03:27.031Z,102486.53
2022-11-14T09:06:32.340Z,102480.41
2022-11-14T09:09:37.812Z,102474.28
2022-11-14T09:13:02.284Z,102490.91
2022-11-14T09:16:07.975Z,102500.59
2022-11-14T09:19:13.241Z,102484.84
2022-11-14T09:22:18.635Z,102476.97
2022-11-14T09:25:24.372Z,102462.09
2022-11-14T09:28:30.062Z,102474.38
2022-11-14T09:31:35.842Z,102470.00
2022-11-14T09:34:41.288Z,102476.13
2022-11-14T09:37:27.280Z,102474.41
2022-11-14T09:40:33.520Z,102470.03
2022-11-14T09:43:57.103Z,102471.81
2022-11-14T09:47:10.683Z,102473.53
2022-11-14T09:50:42.110Z,102402.41
2022-11-14T09:53:59.995Z,102477.09
2022-11-14T09:57:05.491Z,102464.84
2022-11-14T09:59:51.183Z,102469.22
2022-11-14T10:02:36.632Z,102463.06
2022-11-14T10:06:11.038Z,102464.84
2022-11-14T10:09:32.996Z,102456.97
2022-11-14T10:12:45.111Z,102438.56
2022-11-14T10:16:11.649Z,102439.44
2022-11-14T10:19:41.456Z,102434.19
2022-11-14T10:23:05.991Z,102432.41
2022-11-14T10:26:20.291Z,102403.47
2022-11-14T10:29:47.605Z,102406.13
2022-11-14T10:33:02.543Z,102404.38
2022-11-14T10:36:23.691Z,102396.50
2022-11-14T10:39:39.202Z,102410.53
2022-11-14T10:42:55.859Z,102411.41
2022-11-14T10:46:07.895Z,102338.56
2022-11-14T10:49:14.358Z,102383.31
2022-11-14T10:52:23.583Z,102405.28
2022-11-14T10:56:02.615Z,102411.44
2022-11-14T10:59:04.374Z,102403.56
2022-11-14T11:02:15.594Z,102401.78
2022-11-14T11:05:34.692Z,102399.16
2022-11-14T11:08:44.622Z,102395.66
2022-11-14T11:11:50.247Z,102393.03
2022-11-14T11:14:55.891Z,102393.88
2022-11-14T11:18:24.963Z,102298.25
2022-11-14T11:21:33.226Z,102394.78
2022-11-14T11:24:59.009Z,102384.25
2022-11-14T11:28:04.543Z,102382.50
2022-11-14T11:31:18.621Z,102381.63
2022-11-14T11:34:28.276Z,102368.44
2022-11-14T11:37:41.654Z,102383.34
2022-11-14T11:40:49.328Z,102378.97
2022-11-14T11:44:16.901Z,102353.53
2022-11-14T11:47:28.610Z,102350.91
2022-11-14T11:50:37.121Z,102354.41
2022-11-14T11:53:49.642Z,102312.28
2022-11-14T11:56:57.532Z,102336.84
2022-11-14T12:00:08.746Z,102343.88
2022-11-14T12:03:20.278Z,102335.97
2022-11-14T12:06:28.849Z,102329.81
2022-11-14T12:13:31.564Z,102301.72
2022-11-14T12:16:55.478Z,102275.41
2022-11-14T12:20:34.831Z,102279.75
2022-11-14T12:24:11.716Z,102282.38
2022-11-14T12:27:41.395Z,102291.16
2022-11-14T12:30:47.955Z,102290.28
2022-11-14T12:33:58.932Z,102285.91
2022-11-14T12:37:05.484Z,102287.63
2022-11-14T12:40:36.124Z,102282.34
2022-11-14T12:43:53.489Z,102281.47
2022-11-14T12:47:26.798Z,102278.84
2022-11-14T12:50:51.641Z,102281.47
2022-11-14T12:53:59.234Z,102275.31
2022-11-14T12:57:19.677Z,102240.22
2022-11-14T13:00:29.028Z,102276.19
2022-11-14T13:04:04.531Z,102269.13
2022-11-14T13:07:18.625Z,102263.00
2022-11-14T13:10:34.805Z,102262.09
2022-11-14T13:13:42.213Z,102260.34
2022-11-14T13:16:51.167Z,102250.66
2022-11-14T13:20:04.581Z,102263.84
2022-11-14T13:23:10.403Z,102253.28
2022-11-14T13:26:30.743Z,102255.91
2022-11-14T13:29:55.017Z,102249.78
2022-11-14T13:33:03.184Z,102236.59
2022-11-14T13:36:15.880Z,102223.44
2022-11-14T13:39:51.378Z,102219.00
2022-11-14T13:43:22.085Z,102224.28
2022-11-14T13:46:29.995Z,102217.25
2022-11-14T13:50:16.685Z,102219.88
2022-11-14T13:53:31.267Z,102208.44
2022-11-14T13:56:54.075Z,102204.06
2022-11-14T14:00:18.465Z,102192.63
2022-11-14T14:03:39.040Z,102203.16
2022-11-14T14:06:50.233Z,102191.78
2022-11-14T14:10:39.490Z,102165.53
2022-11-14T14:14:16.655Z,102196.19
2022-11-14T14:17:42.443Z,102172.44
2022-11-14T14:21:07.896Z,102171.56
2022-11-14T14:24:25.430Z,102162.88
2022-11-14T14:27:42.607Z,102175.09
2022-11-14T14:30:48.472Z,102176.84
2022-11-14T14:34:07.931Z,102173.34
2022-11-14T14:37:17.354Z,102170.72
2022-11-14T14:40:26.127Z,102165.44
2022-11-14T14:43:52.206Z,102161.03
2022-11-14T14:46:57.587Z,102157.56
2022-11-14T14:50:03.741Z,102172.47
2022-11-14T14:53:19.981Z,102160.19
2022-11-14T14:56:37.325Z,102147.00
2022-11-14T14:59:45.238Z,102138.22
2022-11-14T15:02:51.142Z,102123.31
2022-11-14T15:05:56.483Z,102136.47
2022-11-14T15:09:02.228Z,102133.84
2022-11-14T15:12:10.665Z,102123.28
2022-11-14T15:15:18.004Z,102137.31
2022-11-14T15:18:27.285Z,102128.56
2022-11-14T15:21:42.147Z,102132.94
2022-11-14T15:24:47.469Z,102117.22
2022-11-14T15:27:52.984Z,102136.47
2022-11-14T15:30:58.435Z,102132.09
2022-11-14T15:34:03.744Z,102138.22
2022-11-14T15:37:30.984Z,102112.81
2022-11-14T15:40:40.470Z,102118.06
2022-11-14T15:44:04.004Z,102124.16
2022-11-14T15:47:10.131Z,102130.31
2022-11-14T15:50:38.483Z,102128.56
2022-11-14T15:53:49.068Z,102127.69
2022-11-14T15:56:54.873Z,102127.69
2022-11-14T16:00:00.164Z,102123.34
2022-11-14T16:03:09.888Z,102125.03
2022-11-14T16:06:15.846Z,102112.78
2022-11-14T16:09:20.784Z,102112.75
2022-11-14T16:12:26.778Z,102111.88
2022-11-14T16:15:32.439Z,102106.59
2022-11-14T16:18:37.736Z,102116.25
2022-11-14T16:21:43.330Z,102118.88
2022-11-14T16:24:50.260Z,102121.50
2022-11-14T16:27:56.176Z,102121.50
2022-11-14T16:31:01.707Z,102120.66
2022-11-14T16:34:07.579Z,102125.94
2022-11-14T16:37:18.259Z,102123.31
2022-11-14T16:40:24.116Z,102110.13
2022-11-14T16:43:33.406Z,102132.06
2022-11-14T16:46:39.032Z,102134.69
2022-11-14T16:49:33.196Z,102120.66
2022-11-14T16:52:19.930Z,102128.56
2022-11-14T16:55:06.794Z,102125.03
2022-11-14T16:57:52.142Z,102118.03
2022-11-14T17:00:37.465Z,102119.75
2022-11-14T17:03:23.265Z,102116.22
2022-11-14T17:06:10.545Z,102083.88
2022-11-14T17:08:57.535Z,102104.84
2022-11-14T17:11:44.654Z,102103.06
2022-11-14T17:14:30.284Z,102102.22
2022-11-14T17:17:16.130Z,102104.84
2022-11-14T17:20:01.716Z,102095.16
2022-11-14T17:22:47.343Z,102086.38
2022-11-14T17:25:32.828Z,102096.03
2022-11-14T17:28:18.327Z,102086.38
2022-11-14T17:31:08.321Z,102100.38
2022-11-14T17:33:56.002Z,102099.53
2022-11-14T17:36:41.747Z,102094.25
2022-11-14T17:39:30.148Z,102093.34
2022-11-14T17:42:15.994Z,102103.00
2022-11-14T17:45:21.104Z,102101.25
2022-11-14T17:48:27.253Z,102099.50
2022-11-14T17:51:34.727Z,102085.44
2022-11-14T17:54:40.245Z,102081.91
2022-11-14T17:57:45.588Z,102081.06
2022-11-14T18:00:51.319Z,102069.63
2022-11-14T18:03:59.298Z,102061.69
2022-11-14T18:07:07.264Z,102059.94
2022-11-14T18:10:12.944Z,102081.91
2022-11-14T18:13:18.403Z,102102.97
2022-11-14T18:16:50.390Z,102090.66
2022-11-14T18:19:55.559Z,102089.78
2022-11-14T18:23:01.021Z,102081.88
2022-11-14T18:26:06.660Z,102095.06
2022-11-14T18:29:04.763Z,102088.00
2022-11-14T18:32:09.898Z,102075.78
2022-11-14T18:35:15.131Z,102083.59
2022-11-14T18:38:20.930Z,102096.78
2022-11-14T18:41:35.399Z,102116.09
2022-11-14T18:44:40.958Z,102109.94
2022-11-14T18:47:46.287Z,102109.03
2022-11-14T18:50:51.943Z,102104.66
2022-11-14T18:53:57.404Z,102102.00
2022-11-14T18:57:02.845Z,102109.00
2022-11-14T19:00:08.270Z,102106.38
2022-11-14T19:03:13.435Z,102104.63
2022-11-14T19:06:22.448Z,102094.97
2022-11-14T19:09:30.429Z,102107.25
2022-11-14T19:12:38.161Z,102109.00
2022-11-14T19:15:43.819Z,102112.53
2022-11-14T19:18:49.939Z,102099.41
2022-11-14T19:21:55.875Z,102116.06
2022-11-14T19:25:07.027Z,102118.72
2022-11-14T19:28:12.725Z,102078.47
2022-11-14T19:31:25.354Z,102117.84
2022-11-14T19:34:30.798Z,102124.03
2022-11-14T19:37:36.037Z,102130.16
2022-11-14T19:40:41.794Z,102137.22
2022-11-14T19:43:47.044Z,102145.13
2022-11-14T19:46:53.015Z,102141.59
2022-11-14T19:49:58.556Z,102142.50
2022-11-14T19:52:43.935Z,102146.03
2022-11-14T19:55:30.843Z,102110.16
2022-11-14T19:58:16.721Z,102152.22
2022-11-14T20:01:09.236Z,102135.59
2022-11-14T20:03:57.458Z,102147.81
2022-11-14T20:06:43.185Z,102151.38
2022-11-14T20:09:28.843Z,102156.66
2022-11-14T20:12:14.266Z,102150.53
2022-11-14T20:14:59.582Z,102151.41
2022-11-14T20:17:45.276Z,102153.19
2022-11-14T20:20:30.648Z,102163.72
2022-11-14T20:23:15.959Z,102158.47
2022-11-14T20:26:01.338Z,102163.78
2022-11-14T20:28:52.008Z,102161.13
2022-11-14T20:31:38.102Z,102169.06
2022-11-14T20:34:43.887Z,102170.81
2022-11-14T20:37:49.118Z,102174.38
2022-11-14T20:40:54.774Z,102183.16
2022-11-14T20:44:00.614Z,102174.38
2022-11-14T20:47:10.780Z,102179.66
2022-11-14T20:49:56.891Z,102196.38
2022-11-14T20:52:42.222Z,102192.84
2022-11-14T20:55:27.409Z,102199.88
2022-11-14T20:58:12.801Z,102202.50
2022-11-14T21:00:58.123Z,102180.63
2022-11-14T21:03:43.755Z,102191.13
2022-11-14T21:06:29.262Z,102206.06
2022-11-14T21:09:14.815Z,102205.16
2022-11-14T21:12:00.096Z,102195.53
2022-11-14T21:14:45.700Z,102205.19
2022-11-14T21:17:31.738Z,102210.47
2022-11-14T21:20:17.442Z,102207.84
2022-11-14T21:23:02.814Z,102190.34
2022-11-14T21:25:48.303Z,102207.88
2022-11-14T21:28:35.425Z,102212.25
2022-11-14T21:31:34.056Z,102232.44
2022-11-14T21:34:19.763Z,102219.28
2022-11-14T21:37:04.987Z,102225.41
2022-11-14T21:39:50.607Z,102221.03
2022-11-14T21:42:36.091Z,102222.78
2022-11-14T21:45:21.378Z,102232.47
2022-11-14T21:48:06.771Z,102230.72
2022-11-14T21:50:52.430Z,102238.59
2022-11-14T21:53:38.975Z,102234.22
2022-11-14T21:56:32.348Z,102245.63
2022-11-14T21:59:21.554Z,102241.25
2022-11-14T22:02:29.163Z,102236.88
2022-11-14T22:05:14.383Z,102239.50
2022-11-14T22:08:00.032Z,102252.66
2022-11-14T22:10:45.372Z,102263.19
2022-11-14T22:13:31.747Z,102262.31
2022-11-14T22:16:19.552Z,102225.50
2022-11-14T22:19:05.874Z,102271.09
2022-11-14T22:21:51.491Z,102272.84
2022-11-14T22:24:36.951Z,102278.09
2022-11-14T22:27:22.238Z,102278.97
2022-11-14T22:30:28.132Z,102287.72
2022-11-14T22:33:33.787Z,102307.03
2022-11-14T22:36:44.196Z,102275.47
2022-11-14T22:39:50.711Z,102295.63
2022-11-14T22:42:56.208Z,102302.63
2022-11-14T22:46:01.514Z,102309.66
2022-11-14T22:49:09.000Z,102313.13
2022-11-14T22:52:14.526Z,102319.28
2022-11-14T22:55:20.018Z,102317.53
2022-11-14T22:58:25.451Z,102324.53
2022-11-14T23:01:31.322Z,102328.03
2022-11-14T23:04:36.892Z,102331.50
2022-11-14T23:07:42.435Z,102338.53
2022-11-14T23:10:47.928Z,102342.03
2022-11-14T23:14:09.556Z,102337.66
2022-11-14T23:17:14.834Z,102340.28
2022-11-14T23:20:20.060Z,102349.06
2022-11-14T23:23:25.635Z,102321.84
2022-11-14T23:26:33.959Z,102353.41
2022-11-14T23:29:39.484Z,102349.88
2022-11-14T23:32:47.290Z,102365.66
2022-11-14T23:35:52.452Z,102361.28
2022-11-14T23:38:58.183Z,102361.28
2022-11-14T23:42:03.421Z,102362.13
2022-11-14T23:45:09.158Z,102365.63
2022-11-14T23:48:14.495Z,102366.50
2022-11-14T23:51:20.033Z,102358.59
2022-11-14T23:54:25.099Z,102372.59
2022-11-14T23:57:30.649Z,102380.44
